»·PEaware :: ASA619 KPDX-KOTH

ASA619 :: KPDX-KOTH

FLIGHT INFORMATION

Flight Status: Arrived
Operator:
Alaska Airlines
More flights by this operator :: More flights under this callsign
Pilot: Anonymous 15452 (15452)
Aircraft: BOEING 737-800
(B738)
More flights by this aircraft type
Origin: KPDX Portland Intl
United States
Destination: KOTH North Bend Mun
United States
More flights between these airports :: More routes between these airports
Route: PTLD1 OTH
File this flight plan on PilotEdge
Remarks:
Altitude:
(Current/Filed)
17,000ft
Speed:
(Current/Filed)
400kts
Departed: 06-Dec-17 01:37 PM
Arrived: 06-Dec-17 02:16 PM
Distance/Time
Traveled:
148nm/0:39
Distance/Time
To Go:
Arrived

Flight Plot

Page will automatically refresh every two minutes.

Flight plan parsing failed; only flown route is shown


Map Options




Map Legend


Flown Route
Filed Route
Departure Airport
Arrival Airport
Navaid (VOR, NDB)
Fix

Horizontal Profiles

Position Reports

Time Latitude Longitude Heading Altitude Ground
Speed
06-Dec-17 13:20 45.587526 -122.594310 52 37ft 0kts
06-Dec-17 13:21 45.587526 -122.594310 52 37ft 0kts
06-Dec-17 13:22 45.587526 -122.594310 52 37ft 0kts
06-Dec-17 13:23 45.587526 -122.594310 52 37ft 0kts
06-Dec-17 13:24 45.587526 -122.594310 52 37ft 0kts
06-Dec-17 13:25 45.587526 -122.594310 52 37ft 0kts
06-Dec-17 13:26 45.587526 -122.594310 52 37ft 0kts
06-Dec-17 13:27 45.587526 -122.594310 52 37ft 0kts
06-Dec-17 13:28 45.587526 -122.594310 52 37ft 0kts
06-Dec-17 13:29 45.587526 -122.594310 52 37ft 0kts
06-Dec-17 13:30 45.587526 -122.594310 52 37ft 0kts
06-Dec-17 13:31 45.587526 -122.594310 52 37ft 0kts
06-Dec-17 13:32 45.587526 -122.594310 52 37ft 0kts
06-Dec-17 13:33 45.587526 -122.594310 52 37ft 0kts
06-Dec-17 13:34 45.587362 -122.594617 52 37ft 2kts
06-Dec-17 13:35 45.586915 -122.594796 326 37ft 2kts
06-Dec-17 13:36 45.586803 -122.594639 310 37ft 0kts
06-Dec-17 13:37 45.586833 -122.594690 309 37ft 3kts
06-Dec-17 13:38 45.589697 -122.602093 299 37ft 11kts
06-Dec-17 13:39 45.592548 -122.600196 45 37ft 24kts
06-Dec-17 13:40 45.594403 -122.597538 46 37ft 0kts
06-Dec-17 13:41 45.594420 -122.597513 46 37ft 1kts
06-Dec-17 13:42 45.591909 -122.588029 119 37ft 104kts
06-Dec-17 13:43 45.568577 -122.533094 119 2688ft 193kts
06-Dec-17 13:44 45.540506 -122.466721 116 5987ft 203kts
06-Dec-17 13:45 45.506663 -122.385046 117 6013ft 250kts
06-Dec-17 13:46 45.449514 -122.335799 185 9903ft 286kts
06-Dec-17 13:47 45.379839 -122.378685 205 13039ft 337kts
06-Dec-17 13:48 45.294131 -122.437733 205 15013ft 349kts
06-Dec-17 13:49 45.209780 -122.512210 213 16987ft 379kts
06-Dec-17 13:50 45.119571 -122.595707 212 16965ft 396kts
06-Dec-17 13:51 45.031982 -122.676415 212 16961ft 395kts
06-Dec-17 13:52 44.941250 -122.759833 211 16946ft 394kts
06-Dec-17 13:53 44.856502 -122.837775 212 16929ft 394kts
06-Dec-17 13:54 44.766106 -122.921282 212 16925ft 396kts
06-Dec-17 13:55 44.674797 -123.005211 212 16923ft 399kts
06-Dec-17 13:56 44.581746 -123.091113 213 17018ft 401kts
06-Dec-17 13:57 44.488603 -123.176963 213 17018ft 402kts
06-Dec-17 13:58 44.395392 -123.262893 214 17019ft 402kts
06-Dec-17 13:59 44.302432 -123.348809 213 17020ft 402kts
06-Dec-17 14:00 44.209239 -123.434627 214 17020ft 402kts
06-Dec-17 14:01 44.116595 -123.520412 214 17020ft 401kts
06-Dec-17 14:02 44.023871 -123.605813 213 17021ft 401kts
06-Dec-17 14:03 43.933035 -123.689949 214 16992ft 402kts
06-Dec-17 14:04 43.853418 -123.763459 213 16926ft 358kts
06-Dec-17 14:05 43.776502 -123.834577 213 15439ft 329kts
06-Dec-17 14:06 43.702164 -123.903314 213 13815ft 318kts
06-Dec-17 14:07 43.630105 -123.969960 213 12244ft 309kts
06-Dec-17 14:08 43.558892 -124.035828 213 10686ft 312kts
06-Dec-17 14:09 43.491802 -124.097907 214 9212ft 268kts
06-Dec-17 14:10 43.434867 -124.150616 213 7951ft 236kts
06-Dec-17 14:11 43.384447 -124.199651 215 6845ft 212kts
06-Dec-17 14:12 43.338723 -124.245214 215 5820ft 195kts
06-Dec-17 14:13 43.295629 -124.288137 215 4875ft 195kts
06-Dec-17 14:14 43.269622 -124.345156 269 3992ft 170kts
06-Dec-17 14:15 43.286886 -124.399808 320 3252ft 158kts
06-Dec-17 14:16 43.326795 -124.418086 6 2654ft 154kts
06-Dec-17 14:17 43.361549 -124.393339 49 1983ft 135kts
06-Dec-17 14:18 43.379382 -124.348963 62 1327ft 132kts
06-Dec-17 14:19 43.396660 -124.304119 59 664ft 133kts
06-Dec-17 14:20 43.415060 -124.259823 60 25ft 128kts
06-Dec-17 14:21 43.419818 -124.247665 122 12ft 4kts
06-Dec-17 14:23 43.416815 -124.245235 152 12ft 26kts
06-Dec-17 14:24 43.415404 -124.244975 325 12ft 12kts

Navigation Log

Ident Type
Flight plan parsing failed, navigation log unavailable